createdAt,value
2017-10-05T00:00:38.169Z,0.00
2017-10-05T00:01:38.167Z,0.00
2017-10-05T00:02:38.167Z,0.00
2017-10-05T00:03:38.165Z,0.00
2017-10-05T00:04:38.165Z,0.00
2017-10-05T00:05:38.166Z,0.00
2017-10-05T00:06:38.164Z,0.00
2017-10-05T00:07:38.163Z,0.00
2017-10-05T00:08:38.159Z,0.00
2017-10-05T00:09:38.160Z,0.00
2017-10-05T00:10:38.158Z,0.00
2017-10-05T00:11:38.158Z,0.00
2017-10-05T00:12:38.159Z,0.00
2017-10-05T00:13:38.156Z,0.00
2017-10-05T00:14:38.155Z,0.00
2017-10-05T00:15:38.156Z,0.00
2017-10-05T00:16:38.152Z,0.00
2017-10-05T00:17:38.152Z,0.00
2017-10-05T00:18:38.150Z,0.00
2017-10-05T00:19:38.151Z,0.00
2017-10-05T00:20:38.148Z,0.00
2017-10-05T00:21:38.149Z,0.00
2017-10-05T00:22:38.146Z,0.00
2017-10-05T00:23:38.147Z,0.00
2017-10-05T00:24:38.144Z,0.00
2017-10-05T00:25:38.144Z,0.00
2017-10-05T00:26:38.142Z,0.00
2017-10-05T00:27:38.142Z,0.00
2017-10-05T00:28:38.139Z,0.00
2017-10-05T00:29:57.345Z,0.00
2017-10-05T00:30:38.138Z,0.00
2017-10-05T00:31:38.137Z,0.00
2017-10-05T00:32:38.135Z,0.00
2017-10-05T00:33:38.135Z,0.00
2017-10-05T00:34:38.134Z,0.00
2017-10-05T00:35:38.138Z,0.00
2017-10-05T00:36:38.132Z,0.00
2017-10-05T00:37:38.131Z,0.00
2017-10-05T00:38:38.129Z,0.00
2017-10-05T00:39:38.132Z,0.00
2017-10-05T00:40:38.126Z,0.00
2017-10-05T00:41:38.126Z,0.00
2017-10-05T00:42:38.125Z,0.00
2017-10-05T00:43:38.123Z,0.00
2017-10-05T00:44:38.121Z,0.00
2017-10-05T00:45:38.121Z,0.00
2017-10-05T00:46:38.122Z,0.00
2017-10-05T00:47:38.119Z,0.00
2017-10-05T00:48:38.116Z,0.00
2017-10-05T00:49:38.116Z,0.00
2017-10-05T00:50:38.115Z,0.00
2017-10-05T00:51:38.115Z,0.00
2017-10-05T00:52:38.112Z,0.00
2017-10-05T00:53:38.111Z,0.00
2017-10-05T00:54:38.110Z,0.00
2017-10-05T00:55:38.110Z,0.00
2017-10-05T00:56:38.108Z,0.00
2017-10-05T00:57:38.105Z,0.00
2017-10-05T00:58:38.108Z,0.00
2017-10-05T00:59:38.104Z,0.00
2017-10-05T01:00:38.102Z,0.00
2017-10-05T01:01:38.100Z,0.00
2017-10-05T01:02:38.101Z,0.00
2017-10-05T01:03:38.100Z,0.00
2017-10-05T01:04:38.097Z,0.00
2017-10-05T01:05:38.094Z,0.00
2017-10-05T01:06:38.094Z,0.00
2017-10-05T01:07:38.094Z,0.00
2017-10-05T01:08:38.093Z,0.00
2017-10-05T01:09:38.089Z,0.00
2017-10-05T01:10:38.090Z,0.00
2017-10-05T01:11:38.087Z,0.00
2017-10-05T01:12:38.084Z,0.00
2017-10-05T01:13:38.085Z,0.00
2017-10-05T01:14:38.083Z,0.00
2017-10-05T01:15:38.082Z,0.00
2017-10-05T01:16:38.080Z,0.00
2017-10-05T01:17:38.081Z,0.00
2017-10-05T01:18:38.077Z,0.00
2017-10-05T01:19:38.075Z,0.00
2017-10-05T01:20:38.075Z,0.00
2017-10-05T01:21:38.071Z,0.00
2017-10-05T01:22:38.072Z,0.00
2017-10-05T01:23:38.071Z,0.00
2017-10-05T01:24:38.072Z,0.00
2017-10-05T01:25:38.067Z,0.00
2017-10-05T01:26:38.066Z,0.00
2017-10-05T01:27:38.065Z,0.00
2017-10-05T01:28:38.062Z,0.00
2017-10-05T01:29:38.065Z,0.00
2017-10-05T01:30:38.060Z,0.00
2017-10-05T01:31:38.058Z,0.00
2017-10-05T01:32:38.057Z,0.00
2017-10-05T01:33:38.055Z,0.00
2017-10-05T01:34:38.053Z,0.00
2017-10-05T01:35:38.053Z,0.00
2017-10-05T01:36:38.051Z,0.00
2017-10-05T01:37:38.050Z,0.00
2017-10-05T01:38:38.047Z,0.00
2017-10-05T01:39:38.047Z,0.00
2017-10-05T01:40:38.044Z,0.00
2017-10-05T01:41:38.043Z,0.00
2017-10-05T01:42:38.044Z,0.00
2017-10-05T01:43:38.041Z,0.00
2017-10-05T01:44:38.037Z,0.00
2017-10-05T01:45:38.036Z,0.00
2017-10-05T01:46:38.036Z,0.00
2017-10-05T01:47:38.035Z,0.00
2017-10-05T01:48:38.031Z,0.00
2017-10-05T01:49:38.031Z,0.00
2017-10-05T01:50:38.028Z,0.00
2017-10-05T01:51:38.027Z,0.00
2017-10-05T01:52:38.027Z,0.00
2017-10-05T01:53:38.031Z,0.00
2017-10-05T01:54:38.023Z,0.00
2017-10-05T01:55:38.022Z,0.00
2017-10-05T01:56:38.020Z,0.00
2017-10-05T01:57:38.018Z,0.00
2017-10-05T01:58:38.016Z,0.00
2017-10-05T01:59:38.016Z,0.00
2017-10-05T02:00:38.016Z,0.00
2017-10-05T02:01:38.019Z,0.00
2017-10-05T02:02:38.012Z,0.00
2017-10-05T02:03:38.010Z,0.00
2017-10-05T02:04:38.008Z,0.00
2017-10-05T02:05:38.007Z,0.00
2017-10-05T02:06:38.004Z,0.00
2017-10-05T02:07:38.003Z,0.00
2017-10-05T02:08:38.001Z,0.00
2017-10-05T02:09:38.001Z,0.00
2017-10-05T02:10:38.005Z,0.00
2017-10-05T02:11:37.997Z,0.00
2017-10-05T02:12:37.994Z,0.00
2017-10-05T02:13:37.993Z,0.00
2017-10-05T02:14:37.991Z,0.00
2017-10-05T02:15:37.992Z,0.00
2017-10-05T02:16:37.989Z,0.00
2017-10-05T02:17:37.987Z,0.00
2017-10-05T02:18:37.987Z,0.00
2017-10-05T02:19:37.986Z,0.00
2017-10-05T02:20:37.982Z,0.00
2017-10-05T02:21:37.981Z,0.00
2017-10-05T02:22:37.981Z,0.00
2017-10-05T02:23:37.979Z,0.00
2017-10-05T02:24:37.977Z,0.00
2017-10-05T02:25:37.974Z,0.00
2017-10-05T02:26:37.974Z,0.00
2017-10-05T02:27:37.971Z,0.00
2017-10-05T02:28:37.970Z,0.00
2017-10-05T02:29:37.969Z,0.00
2017-10-05T02:30:37.967Z,0.00
2017-10-05T02:31:37.966Z,0.00
2017-10-05T02:32:37.963Z,0.00
2017-10-05T02:33:37.961Z,0.00
2017-10-05T02:34:37.961Z,0.00
2017-10-05T02:35:37.959Z,0.00
2017-10-05T02:36:37.955Z,0.00
2017-10-05T02:37:37.956Z,0.00
2017-10-05T02:38:37.954Z,0.00
2017-10-05T02:39:37.953Z,0.00
2017-10-05T02:40:37.949Z,0.00
2017-10-05T02:41:37.949Z,0.00
2017-10-05T02:42:37.948Z,0.00
2017-10-05T02:43:37.945Z,0.00
2017-10-05T02:44:37.943Z,0.00
2017-10-05T02:45:37.942Z,0.00
2017-10-05T02:46:37.941Z,0.00
2017-10-05T02:47:37.940Z,0.00
2017-10-05T02:48:37.936Z,0.00
2017-10-05T02:49:37.936Z,0.00
2017-10-05T02:50:37.934Z,0.00
2017-10-05T02:51:37.935Z,0.00
2017-10-05T02:52:37.931Z,0.00
2017-10-05T02:53:37.931Z,0.00
2017-10-05T02:54:37.928Z,0.00
2017-10-05T02:55:37.927Z,0.00
2017-10-05T02:56:37.923Z,0.00
2017-10-05T02:57:37.923Z,0.00
2017-10-05T02:58:37.921Z,0.00
2017-10-05T02:59:37.919Z,0.00
2017-10-05T03:00:37.917Z,0.00
2017-10-05T03:01:37.916Z,0.00
2017-10-05T03:02:37.915Z,0.00
2017-10-05T03:03:37.912Z,0.00
2017-10-05T03:04:37.909Z,0.00
2017-10-05T03:05:37.909Z,0.00
2017-10-05T03:06:37.912Z,0.00
2017-10-05T03:07:37.906Z,0.00
2017-10-05T03:08:37.908Z,0.00
2017-10-05T03:09:37.902Z,0.00
2017-10-05T03:10:37.901Z,0.00
2017-10-05T03:11:37.899Z,0.00
2017-10-05T03:12:37.897Z,0.00
2017-10-05T03:13:37.896Z,0.00
2017-10-05T03:14:37.894Z,0.00
2017-10-05T03:15:37.893Z,0.00
2017-10-05T03:16:37.892Z,0.00
2017-10-05T03:17:37.890Z,0.00
2017-10-05T03:18:37.888Z,0.00
2017-10-05T03:19:37.888Z,0.00
2017-10-05T03:20:37.883Z,0.00
2017-10-05T03:21:37.883Z,0.00
2017-10-05T03:22:37.881Z,0.00
2017-10-05T03:23:37.880Z,0.00
2017-10-05T03:24:37.877Z,0.00
2017-10-05T03:25:37.875Z,0.00
2017-10-05T03:26:37.875Z,0.00
2017-10-05T03:27:37.874Z,0.00
2017-10-05T03:28:37.870Z,0.00
2017-10-05T03:29:37.870Z,0.00
2017-10-05T03:30:37.869Z,0.00
2017-10-05T03:31:37.866Z,0.00
2017-10-05T03:32:37.865Z,0.00
2017-10-05T03:33:37.864Z,0.00
2017-10-05T03:34:37.862Z,0.00
2017-10-05T03:35:37.862Z,0.00
2017-10-05T03:36:37.861Z,0.00
2017-10-05T03:37:37.857Z,0.00
2017-10-05T03:38:37.857Z,0.00
2017-10-05T03:39:37.854Z,0.00
2017-10-05T03:40:37.855Z,0.00
2017-10-05T03:41:37.852Z,0.00
2017-10-05T03:42:37.851Z,0.00
2017-10-05T03:43:37.851Z,0.00
2017-10-05T03:44:37.845Z,0.00
2017-10-05T03:45:37.845Z,0.00
2017-10-05T03:46:37.844Z,0.00
2017-10-05T03:47:37.841Z,0.00
2017-10-05T03:48:37.839Z,0.00
2017-10-05T03:49:37.838Z,0.00
2017-10-05T03:50:37.838Z,0.00
2017-10-05T03:51:37.835Z,0.00
2017-10-05T03:52:37.833Z,0.00
2017-10-05T03:53:37.833Z,0.00
2017-10-05T03:54:37.830Z,0.00
2017-10-05T03:55:37.830Z,0.00
2017-10-05T03:56:37.827Z,0.00
2017-10-05T03:57:37.826Z,0.00
2017-10-05T03:58:37.825Z,0.00
2017-10-05T03:59:37.824Z,0.00
2017-10-05T04:00:37.822Z,0.00
2017-10-05T04:01:37.823Z,0.00
2017-10-05T04:02:37.819Z,0.00
2017-10-05T04:03:37.818Z,0.00
2017-10-05T04:04:37.815Z,0.00
2017-10-05T04:05:37.813Z,0.00
2017-10-05T04:06:37.812Z,0.00
2017-10-05T04:07:37.811Z,0.00
2017-10-05T04:08:37.811Z,0.00
2017-10-05T04:09:37.808Z,0.00
2017-10-05T04:10:37.806Z,0.00
2017-10-05T04:11:37.805Z,0.00
2017-10-05T04:12:37.804Z,0.00
2017-10-05T04:13:37.801Z,0.00
2017-10-05T04:14:37.800Z,0.00
2017-10-05T04:15:37.799Z,0.00
2017-10-05T04:16:37.798Z,0.00
2017-10-05T04:17:37.795Z,0.00
2017-10-05T04:18:37.795Z,0.00
2017-10-05T04:19:37.792Z,0.00
2017-10-05T04:20:37.789Z,0.00
2017-10-05T04:21:37.789Z,0.00
2017-10-05T04:22:37.787Z,0.00
2017-10-05T04:23:37.785Z,0.00
2017-10-05T04:24:37.786Z,0.00
2017-10-05T04:25:37.783Z,0.00
2017-10-05T04:26:37.782Z,0.00
2017-10-05T04:27:37.779Z,0.00
2017-10-05T04:28:37.783Z,0.00
2017-10-05T04:29:37.777Z,0.00
2017-10-05T04:30:37.775Z,0.00
2017-10-05T04:31:37.775Z,0.00
2017-10-05T04:32:37.772Z,0.00
2017-10-05T04:33:37.770Z,0.00
2017-10-05T04:34:37.768Z,0.00
2017-10-05T04:35:37.769Z,0.00
2017-10-05T04:36:37.766Z,0.00
2017-10-05T04:37:37.763Z,0.00
2017-10-05T04:38:37.762Z,0.00
2017-10-05T04:39:37.761Z,0.00
2017-10-05T04:40:37.767Z,0.00
2017-10-05T04:41:37.757Z,0.00
2017-10-05T04:42:37.758Z,0.00
2017-10-05T04:43:37.757Z,0.00
2017-10-05T04:44:37.753Z,0.00
2017-10-05T04:45:37.752Z,0.00
2017-10-05T04:46:37.751Z,0.00
2017-10-05T04:47:37.748Z,0.00
2017-10-05T04:48:37.749Z,0.00
2017-10-05T04:49:37.746Z,0.00
2017-10-05T04:50:37.744Z,0.00
2017-10-05T04:51:37.744Z,0.00
2017-10-05T04:52:37.742Z,0.00
2017-10-05T04:53:37.740Z,0.00
2017-10-05T04:54:37.738Z,0.00
2017-10-05T04:55:37.739Z,0.00
2017-10-05T04:56:37.736Z,0.00
2017-10-05T04:57:37.735Z,0.00
2017-10-05T04:58:37.736Z,0.00
2017-10-05T04:59:37.732Z,0.00
2017-10-05T05:00:37.732Z,0.00
2017-10-05T05:01:37.736Z,0.00
2017-10-05T05:02:37.727Z,0.00
2017-10-05T05:03:37.726Z,0.00
2017-10-05T05:04:37.724Z,0.00
2017-10-05T05:05:37.724Z,0.00
2017-10-05T05:06:37.721Z,0.00
2017-10-05T05:07:37.722Z,0.00
2017-10-05T05:08:37.720Z,0.00
2017-10-05T05:09:37.718Z,0.00
2017-10-05T05:10:37.717Z,0.00
2017-10-05T05:11:37.715Z,0.00
2017-10-05T05:12:37.712Z,0.00
2017-10-05T05:13:37.715Z,0.00
2017-10-05T05:14:37.711Z,0.00
2017-10-05T05:15:37.710Z,0.00
2017-10-05T05:16:37.708Z,0.00
2017-10-05T05:17:37.707Z,0.00
2017-10-05T05:18:37.707Z,0.00
2017-10-05T05:19:37.704Z,0.00
2017-10-05T05:20:37.702Z,0.00
2017-10-05T05:21:37.710Z,0.00
2017-10-05T05:22:37.698Z,0.00
2017-10-05T05:23:37.698Z,4.00
2017-10-05T05:24:37.696Z,0.00
2017-10-05T05:25:37.696Z,4.00
2017-10-05T05:26:37.694Z,4.00
2017-10-05T05:27:37.693Z,8.00
2017-10-05T05:28:37.689Z,4.00
2017-10-05T05:29:37.688Z,8.00
2017-10-05T05:30:37.688Z,12.00
2017-10-05T05:31:37.686Z,16.00
2017-10-05T05:32:37.684Z,16.00
2017-10-05T05:33:37.682Z,12.00
2017-10-05T05:34:37.682Z,8.00
2017-10-05T05:35:37.681Z,16.00
2017-10-05T05:36:37.678Z,16.00
2017-10-05T05:37:37.676Z,20.00
2017-10-05T05:38:37.676Z,20.00
2017-10-05T05:39:37.674Z,20.00
2017-10-05T05:40:37.672Z,24.00
2017-10-05T05:41:37.673Z,28.00
2017-10-05T05:42:37.672Z,32.00
2017-10-05T05:43:37.669Z,40.00
2017-10-05T05:44:37.665Z,40.00
2017-10-05T05:45:37.665Z,44.00
2017-10-05T05:46:37.666Z,40.00
2017-10-05T05:47:37.663Z,40.00
2017-10-05T05:48:37.660Z,44.00
2017-10-05T05:49:37.661Z,40.00
2017-10-05T05:50:37.659Z,44.00
2017-10-05T05:51:37.657Z,56.00
2017-10-05T05:52:37.655Z,52.00
2017-10-05T05:53:37.654Z,56.00
2017-10-05T05:54:37.652Z,56.00
2017-10-05T05:55:37.653Z,72.00
2017-10-05T05:56:37.652Z,60.00
2017-10-05T05:57:37.649Z,88.00
2017-10-05T05:58:37.648Z,92.00
2017-10-05T05:59:37.646Z,96.00
2017-10-05T06:00:37.644Z,96.00
2017-10-05T06:01:37.644Z,96.00
2017-10-05T06:02:37.643Z,84.00
2017-10-05T06:03:37.642Z,108.00
2017-10-05T06:04:37.639Z,80.00
2017-10-05T06:05:37.637Z,92.00
2017-10-05T06:06:37.636Z,104.00
2017-10-05T06:07:37.635Z,96.00
2017-10-05T06:08:37.634Z,96.00
2017-10-05T06:09:37.637Z,104.00
2017-10-05T06:10:37.632Z,108.00
2017-10-05T06:11:37.631Z,120.00
2017-10-05T06:12:37.629Z,120.00
2017-10-05T06:13:37.628Z,100.00
2017-10-05T06:14:37.626Z,120.00
2017-10-05T06:15:37.629Z,124.00
2017-10-05T06:16:37.624Z,152.00
2017-10-05T06:17:37.623Z,172.00
2017-10-05T06:18:37.622Z,188.00
2017-10-05T06:19:37.621Z,176.00
2017-10-05T06:20:37.617Z,188.00
2017-10-05T06:21:37.616Z,140.00
2017-10-05T06:22:37.628Z,148.00
2017-10-05T06:23:37.615Z,212.00
2017-10-05T06:24:37.614Z,240.00
2017-10-05T06:25:37.616Z,308.00
2017-10-05T06:26:37.611Z,296.00
2017-10-05T06:27:37.609Z,300.00
2017-10-05T06:28:37.607Z,268.00
2017-10-05T06:29:37.606Z,272.00
2017-10-05T06:30:37.606Z,300.00
2017-10-05T06:31:37.604Z,272.00
2017-10-05T06:32:37.603Z,256.00
2017-10-05T06:33:37.601Z,264.00
2017-10-05T06:34:37.607Z,212.00
2017-10-05T06:35:37.599Z,284.00
2017-10-05T06:36:37.599Z,364.00
2017-10-05T06:37:37.597Z,440.00
2017-10-05T06:38:37.598Z,388.00
2017-10-05T06:39:37.594Z,536.00
2017-10-05T06:40:37.594Z,656.00
2017-10-05T06:41:37.592Z,752.00
2017-10-05T06:42:37.590Z,828.00
2017-10-05T06:43:37.591Z,612.00
2017-10-05T06:44:37.588Z,448.00
2017-10-05T06:45:37.587Z,480.00
2017-10-05T06:46:37.587Z,500.00
2017-10-05T06:47:37.585Z,500.00
2017-10-05T06:48:37.585Z,508.00
2017-10-05T06:49:37.583Z,732.00
2017-10-05T06:50:37.580Z,1040.00
2017-10-05T06:51:37.579Z,776.00
2017-10-05T06:52:37.579Z,660.00
2017-10-05T06:53:37.579Z,648.00
2017-10-05T06:54:37.577Z,628.00
2017-10-05T06:55:37.575Z,640.00
2017-10-05T06:56:37.574Z,644.00
2017-10-05T06:57:37.572Z,756.00
2017-10-05T06:58:37.570Z,788.00
2017-10-05T06:59:37.571Z,580.00
2017-10-05T07:00:37.569Z,536.00
2017-10-05T07:01:37.568Z,476.00
2017-10-05T07:02:37.566Z,444.00
2017-10-05T07:03:37.566Z,592.00
2017-10-05T07:04:37.564Z,548.00
2017-10-05T07:05:37.563Z,656.00
2017-10-05T07:06:37.560Z,556.00
2017-10-05T07:07:37.562Z,712.00
2017-10-05T07:08:37.559Z,620.00
2017-10-05T07:09:37.557Z,700.00
2017-10-05T07:10:37.556Z,524.00
2017-10-05T07:11:37.555Z,488.00
2017-10-05T07:12:37.555Z,576.00
2017-10-05T07:13:37.552Z,556.00
2017-10-05T07:14:37.553Z,620.00
2017-10-05T07:15:37.552Z,772.00
2017-10-05T07:16:37.550Z,560.00
2017-10-05T07:17:37.549Z,728.00
2017-10-05T07:18:37.548Z,644.00
2017-10-05T07:19:37.546Z,804.00
2017-10-05T07:20:37.546Z,640.00
2017-10-05T07:21:37.543Z,644.00
2017-10-05T07:22:37.547Z,560.00
2017-10-05T07:23:37.543Z,876.00
2017-10-05T07:24:37.541Z,732.00
2017-10-05T07:25:37.539Z,620.00
2017-10-05T07:26:37.539Z,832.00
2017-10-05T07:27:37.537Z,908.00
2017-10-05T07:28:37.536Z,888.00
2017-10-05T07:29:37.536Z,700.00
2017-10-05T07:30:37.534Z,688.00
2017-10-05T07:31:37.533Z,892.00
2017-10-05T07:32:37.538Z,776.00
2017-10-05T07:33:37.530Z,732.00
2017-10-05T07:34:37.537Z,752.00
2017-10-05T07:35:37.530Z,756.00
2017-10-05T07:36:37.527Z,868.00
2017-10-05T07:37:37.530Z,760.00
2017-10-05T07:38:37.527Z,664.00
2017-10-05T07:39:37.526Z,656.00
2017-10-05T07:40:37.526Z,1340.00
2017-10-05T07:41:37.523Z,1156.00
2017-10-05T07:42:37.522Z,936.00
2017-10-05T07:43:37.524Z,1048.00
2017-10-05T07:44:37.520Z,976.00
2017-10-05T07:45:37.519Z,1032.00
2017-10-05T07:46:37.519Z,1012.00
2017-10-05T07:47:37.517Z,1076.00
2017-10-05T07:48:37.515Z,1252.00
2017-10-05T07:49:37.515Z,1060.00
2017-10-05T07:50:37.515Z,1104.00
2017-10-05T07:51:37.512Z,1120.00
2017-10-05T07:52:37.511Z,1288.00
2017-10-05T07:53:37.514Z,1244.00
2017-10-05T07:54:37.510Z,1104.00
2017-10-05T07:55:37.510Z,1060.00
2017-10-05T07:56:37.510Z,1188.00
2017-10-05T07:57:37.508Z,1232.00
2017-10-05T07:58:37.507Z,1356.00
2017-10-05T07:59:37.507Z,1184.00
2017-10-05T08:00:37.504Z,1420.00
2017-10-05T08:01:37.504Z,1052.00
2017-10-05T08:02:37.504Z,1024.00
2017-10-05T08:03:37.503Z,1164.00
2017-10-05T08:04:37.501Z,1396.00
2017-10-05T08:05:37.500Z,1796.00
2017-10-05T08:06:37.500Z,1272.00
2017-10-05T08:07:37.499Z,1432.00
2017-10-05T08:08:37.498Z,1004.00
2017-10-05T08:09:37.497Z,976.00
2017-10-05T08:10:37.500Z,984.00
2017-10-05T08:11:37.497Z,952.00
2017-10-05T08:12:37.498Z,1260.00
2017-10-05T08:13:37.498Z,1620.00
2017-10-05T08:14:37.493Z,1976.00
2017-10-05T08:15:37.492Z,2520.00
2017-10-05T08:16:37.491Z,2276.00
2017-10-05T08:17:37.491Z,1936.00
2017-10-05T08:18:37.490Z,1728.00
2017-10-05T08:19:37.490Z,1496.00
2017-10-05T08:20:37.489Z,1404.00
2017-10-05T08:21:37.489Z,1072.00
2017-10-05T08:22:37.489Z,1496.00
2017-10-05T08:23:37.488Z,1996.00
2017-10-05T08:24:37.485Z,1604.00
2017-10-05T08:25:37.486Z,2020.00
2017-10-05T08:26:37.485Z,2408.00
2017-10-05T08:27:37.486Z,1920.00
2017-10-05T08:28:37.483Z,1472.00
2017-10-05T08:29:37.482Z,1356.00
2017-10-05T08:30:37.484Z,1748.00
2017-10-05T08:31:37.489Z,1872.00
2017-10-05T08:32:37.482Z,2232.00
2017-10-05T08:33:37.482Z,2764.00
2017-10-05T08:34:37.482Z,2920.00
2017-10-05T08:35:37.487Z,2560.00
2017-10-05T08:36:37.479Z,2428.00
2017-10-05T08:37:37.478Z,2320.00
2017-10-05T08:38:37.479Z,2988.00
2017-10-05T08:39:37.478Z,2408.00
2017-10-05T08:40:37.478Z,2072.00
2017-10-05T08:41:37.478Z,1940.00
2017-10-05T08:42:37.478Z,2636.00
2017-10-05T08:43:37.478Z,2524.00
2017-10-05T08:44:37.478Z,1924.00
2017-10-05T08:45:37.475Z,1648.00
2017-10-05T08:46:37.477Z,1560.00
2017-10-05T08:47:37.482Z,1248.00
2017-10-05T08:48:37.475Z,1664.00
2017-10-05T08:49:37.475Z,1640.00
2017-10-05T08:50:37.476Z,2156.00
2017-10-05T08:51:37.475Z,2300.00
2017-10-05T08:52:37.474Z,2648.00
2017-10-05T08:53:37.474Z,2360.00
2017-10-05T08:54:37.475Z,2744.00
2017-10-05T08:55:37.475Z,3672.00
2017-10-05T08:56:37.474Z,2448.00
2017-10-05T08:57:37.474Z,1892.00
2017-10-05T08:58:37.475Z,1516.00
2017-10-05T08:59:37.475Z,2024.00
2017-10-05T09:00:37.474Z,2692.00
2017-10-05T09:01:37.473Z,1544.00
2017-10-05T09:02:37.476Z,1236.00
2017-10-05T09:03:37.475Z,2528.00
2017-10-05T09:04:37.473Z,1884.00
2017-10-05T09:05:37.474Z,2200.00
2017-10-05T09:06:37.474Z,1848.00
2017-10-05T09:07:37.475Z,1692.00
2017-10-05T09:08:37.473Z,2260.00
2017-10-05T09:09:37.474Z,2436.00
2017-10-05T09:10:37.475Z,3420.00
2017-10-05T09:11:37.474Z,2528.00
2017-10-05T09:12:37.475Z,1904.00
2017-10-05T09:13:37.475Z,2736.00
2017-10-05T09:14:37.476Z,2788.00
2017-10-05T09:15:37.476Z,2140.00
2017-10-05T09:16:37.475Z,2140.00
2017-10-05T09:17:37.477Z,2488.00
2017-10-05T09:18:37.475Z,2188.00
2017-10-05T09:19:37.476Z,2152.00
2017-10-05T09:20:37.487Z,2064.00
2017-10-05T09:21:37.476Z,2132.00
2017-10-05T09:22:37.478Z,1756.00
2017-10-05T09:23:37.478Z,2216.00
2017-10-05T09:24:37.478Z,3484.00
2017-10-05T09:25:37.480Z,4352.00
2017-10-05T09:26:37.478Z,4408.00
2017-10-05T09:27:37.483Z,6508.00
2017-10-05T09:28:37.479Z,3372.00
2017-10-05T09:29:37.480Z,2524.00
2017-10-05T09:30:37.480Z,2620.00
2017-10-05T09:31:37.481Z,2156.00
2017-10-05T09:32:37.483Z,1972.00
2017-10-05T09:33:37.481Z,1852.00
2017-10-05T09:34:37.483Z,1696.00
2017-10-05T09:35:37.483Z,1440.00
2017-10-05T09:36:37.483Z,1600.00
2017-10-05T09:37:37.483Z,1916.00
2017-10-05T09:38:37.485Z,1756.00
2017-10-05T09:39:37.485Z,1824.00
2017-10-05T09:40:37.484Z,1784.00
2017-10-05T09:41:37.486Z,2496.00
2017-10-05T09:42:37.485Z,2652.00
2017-10-05T09:43:37.486Z,2760.00
2017-10-05T09:44:37.487Z,4132.00
2017-10-05T09:45:37.486Z,4232.00
2017-10-05T09:46:37.488Z,5020.00
2017-10-05T09:47:37.486Z,4864.00
2017-10-05T09:48:37.486Z,4468.00
2017-10-05T09:49:37.487Z,4488.00
2017-10-05T09:50:37.485Z,4844.00
2017-10-05T09:51:37.490Z,4884.00
2017-10-05T09:52:37.485Z,5292.00
2017-10-05T09:53:37.485Z,5740.00
2017-10-05T09:54:37.486Z,6032.00
2017-10-05T09:55:37.487Z,5852.00
2017-10-05T09:56:37.488Z,6456.00
2017-10-05T09:57:37.487Z,6488.00
2017-10-05T09:58:37.488Z,15052.00
2017-10-05T09:59:37.488Z,6836.00
2017-10-05T10:00:37.487Z,33472.00
2017-10-05T10:01:37.487Z,41664.00
2017-10-05T10:02:37.488Z,12544.00
2017-10-05T10:03:37.490Z,7072.00
2017-10-05T10:04:37.488Z,10504.00
2017-10-05T10:05:37.490Z,5756.00
2017-10-05T10:06:37.491Z,8000.00
2017-10-05T10:07:37.492Z,27264.00
2017-10-05T10:08:37.492Z,4288.00
2017-10-05T10:09:37.494Z,6172.00
2017-10-05T10:10:37.496Z,4832.00
2017-10-05T10:11:37.497Z,3204.00
2017-10-05T10:12:37.498Z,3092.00
2017-10-05T10:13:37.499Z,5660.00
2017-10-05T10:14:37.501Z,29056.00
2017-10-05T10:15:37.501Z,25056.00
2017-10-05T10:16:37.503Z,21568.00
2017-10-05T10:17:37.503Z,8408.00
2017-10-05T10:18:37.506Z,13596.00
2017-10-05T10:19:37.507Z,17472.00
2017-10-05T10:20:37.509Z,7752.00
2017-10-05T10:21:37.511Z,11140.00
2017-10-05T10:22:37.512Z,13584.00
2017-10-05T10:23:37.514Z,11280.00
2017-10-05T10:24:37.519Z,12492.00
2017-10-05T10:25:37.517Z,13064.00
2017-10-05T10:26:37.520Z,12344.00
2017-10-05T10:27:37.523Z,14440.00
2017-10-05T10:28:37.526Z,10596.00
2017-10-05T10:29:37.529Z,6152.00
2017-10-05T10:30:37.532Z,6864.00
2017-10-05T10:31:37.535Z,5380.00
2017-10-05T10:32:37.536Z,8892.00
2017-10-05T10:33:37.540Z,3480.00
2017-10-05T10:34:37.542Z,3256.00
2017-10-05T10:35:37.546Z,2620.00
2017-10-05T10:36:37.547Z,2828.00
2017-10-05T10:37:37.553Z,2660.00
2017-10-05T10:38:37.553Z,3620.00
2017-10-05T10:39:37.556Z,9492.00
2017-10-05T10:40:37.557Z,5468.00
2017-10-05T10:41:37.564Z,13104.00
2017-10-05T10:42:37.565Z,8264.00
2017-10-05T10:43:37.565Z,8808.00
2017-10-05T10:44:37.566Z,9692.00
2017-10-05T10:45:37.568Z,9080.00
2017-10-05T10:46:37.571Z,12056.00
2017-10-05T10:47:37.573Z,8400.00
2017-10-05T10:48:37.580Z,9516.00
2017-10-05T10:49:37.579Z,9972.00
2017-10-05T10:50:37.579Z,10156.00
2017-10-05T10:51:37.580Z,6108.00
2017-10-05T10:52:37.581Z,4316.00
2017-10-05T10:53:37.584Z,3408.00
2017-10-05T10:54:37.589Z,2596.00
2017-10-05T10:55:37.588Z,3056.00
2017-10-05T10:56:37.589Z,2540.00
2017-10-05T10:57:37.591Z,3104.00
2017-10-05T10:58:37.595Z,5456.00
2017-10-05T10:59:37.596Z,6104.00
2017-10-05T11:00:37.594Z,6520.00
2017-10-05T11:01:37.598Z,4204.00
2017-10-05T11:02:37.600Z,3240.00
2017-10-05T11:03:37.599Z,4448.00
2017-10-05T11:04:37.600Z,8348.00
2017-10-05T11:05:37.602Z,6144.00
2017-10-05T11:06:37.604Z,6880.00
2017-10-05T11:07:37.605Z,5816.00
2017-10-05T11:08:37.604Z,5760.00
2017-10-05T11:09:37.606Z,5496.00
2017-10-05T11:10:37.608Z,6916.00
2017-10-05T11:11:37.608Z,5500.00
2017-10-05T11:12:37.609Z,4916.00
2017-10-05T11:13:37.612Z,5032.00
2017-10-05T11:14:37.613Z,5640.00
2017-10-05T11:15:37.613Z,4332.00
2017-10-05T11:16:37.614Z,4904.00
2017-10-05T11:17:37.613Z,6056.00
2017-10-05T11:18:37.616Z,6116.00
2017-10-05T11:19:37.618Z,4860.00
2017-10-05T11:20:37.617Z,4888.00
2017-10-05T11:21:37.618Z,7388.00
2017-10-05T11:22:37.618Z,9128.00
2017-10-05T11:23:37.620Z,9740.00
2017-10-05T11:24:37.623Z,11496.00
2017-10-05T11:25:37.622Z,9736.00
2017-10-05T11:26:37.622Z,12832.00
2017-10-05T11:27:37.628Z,14340.00
2017-10-05T11:28:37.625Z,13300.00
2017-10-05T11:29:37.626Z,13528.00
2017-10-05T11:30:37.626Z,10152.00
2017-10-05T11:31:37.629Z,8112.00
2017-10-05T11:32:37.630Z,7528.00
2017-10-05T11:33:37.636Z,7736.00
2017-10-05T11:34:37.632Z,7064.00
2017-10-05T11:35:37.633Z,7048.00
2017-10-05T11:36:37.635Z,6944.00
2017-10-05T11:37:37.637Z,6584.00
2017-10-05T11:38:37.638Z,5324.00
2017-10-05T11:39:37.640Z,5044.00
2017-10-05T11:40:37.642Z,4984.00
2017-10-05T11:41:37.644Z,3884.00
2017-10-05T11:42:37.646Z,2992.00
2017-10-05T11:43:37.647Z,3892.00
2017-10-05T11:44:37.648Z,4764.00
2017-10-05T11:45:37.649Z,6308.00
2017-10-05T11:46:37.652Z,5932.00
2017-10-05T11:47:37.651Z,4768.00
2017-10-05T11:48:37.653Z,6572.00
2017-10-05T11:49:37.655Z,4824.00
2017-10-05T11:50:37.658Z,5272.00
2017-10-05T11:51:37.655Z,7732.00
2017-10-05T11:52:37.658Z,8116.00
2017-10-05T11:53:37.657Z,4776.00
2017-10-05T11:54:37.658Z,6888.00
2017-10-05T11:55:37.660Z,5996.00
2017-10-05T11:56:37.660Z,5848.00
2017-10-05T11:57:37.661Z,6020.00
2017-10-05T11:58:37.661Z,4928.00
2017-10-05T11:59:37.662Z,5904.00
2017-10-05T12:00:37.662Z,6672.00
2017-10-05T12:01:37.663Z,7768.00
2017-10-05T12:02:37.663Z,9816.00
2017-10-05T12:03:37.666Z,9672.00
2017-10-05T12:04:37.664Z,8232.00
2017-10-05T12:05:37.666Z,7268.00
2017-10-05T12:06:37.666Z,5824.00
2017-10-05T12:07:37.667Z,4592.00
2017-10-05T12:08:37.669Z,3980.00
2017-10-05T12:09:37.667Z,4644.00
2017-10-05T12:10:37.670Z,5500.00
2017-10-05T12:11:37.674Z,4384.00
2017-10-05T12:12:37.670Z,3692.00
2017-10-05T12:13:37.670Z,3556.00
2017-10-05T12:14:37.671Z,3404.00
2017-10-05T12:15:37.673Z,3880.00
2017-10-05T12:16:37.673Z,3624.00
2017-10-05T12:17:37.673Z,3240.00
2017-10-05T12:18:37.673Z,3548.00
2017-10-05T12:19:37.675Z,3852.00
2017-10-05T12:20:37.674Z,5948.00
2017-10-05T12:21:37.675Z,6168.00
2017-10-05T12:22:37.676Z,6968.00
2017-10-05T12:23:37.676Z,8756.00
2017-10-05T12:24:37.677Z,9700.00
2017-10-05T12:25:37.679Z,9192.00
2017-10-05T12:26:37.678Z,8676.00
2017-10-05T12:27:37.680Z,6316.00
2017-10-05T12:28:37.679Z,5504.00
2017-10-05T12:29:37.679Z,5496.00
2017-10-05T12:30:37.681Z,5032.00
2017-10-05T12:31:37.681Z,4900.00
2017-10-05T12:32:37.682Z,5528.00
2017-10-05T12:33:37.683Z,6392.00
2017-10-05T12:34:37.685Z,6320.00
2017-10-05T12:35:37.685Z,6168.00
2017-10-05T12:36:37.683Z,5356.00
2017-10-05T12:37:37.686Z,4292.00
2017-10-05T12:38:37.685Z,3464.00
2017-10-05T12:39:37.687Z,3440.00
2017-10-05T12:40:37.687Z,3916.00